createdAt,value
2022-08-17T11:25:20.347Z,25.39
2022-08-17T11:26:21.504Z,27.41
2022-08-17T11:27:23.602Z,27.62
2022-08-17T11:28:25.645Z,28.25
2022-08-17T11:29:27.688Z,29.02
2022-08-17T11:30:29.115Z,28.97
2022-08-17T11:31:38.593Z,27.72
2022-08-17T11:32:32.178Z,28.85
2022-08-17T11:33:36.783Z,27.36
2022-08-17T11:34:35.629Z,26.65
2022-08-17T11:35:37.691Z,27.58
2022-08-17T11:36:39.799Z,25.34
2022-08-17T11:37:41.842Z,26.48
2022-08-17T11:38:43.920Z,24.92
2022-08-17T11:39:45.415Z,23.41
2022-08-17T11:40:46.472Z,24.87
2022-08-17T11:41:48.533Z,24.46
2022-08-17T11:42:50.800Z,24.61
2022-08-17T11:43:51.933Z,24.60
2022-08-17T11:44:53.977Z,24.20
2022-08-17T11:45:56.026Z,23.43
2022-08-17T11:46:58.060Z,23.80
2022-08-17T11:48:26.008Z,22.38
2022-08-17T11:49:01.367Z,23.16
2022-08-17T11:50:03.453Z,23.26
2022-08-17T11:51:05.561Z,23.63
2022-08-17T11:52:07.671Z,23.26
2022-08-17T11:53:09.707Z,23.16
2022-08-17T11:55:34.387Z,22.94
2022-08-17T11:56:14.164Z,22.94
2022-08-17T11:57:16.318Z,22.75
2022-08-17T11:58:18.718Z,22.66
2022-08-17T11:59:19.715Z,22.65
2022-08-17T12:00:21.770Z,23.20
2022-08-17T12:01:23.839Z,23.20
2022-08-17T12:02:25.878Z,22.36
2022-08-17T12:03:27.372Z,22.57
2022-08-17T12:04:28.412Z,22.88
2022-08-17T12:05:29.349Z,23.18
2022-08-17T12:06:31.397Z,23.48
2022-08-17T12:07:33.437Z,22.98
2022-08-17T12:08:35.475Z,22.98
2022-08-17T12:09:37.512Z,22.78
2022-08-17T12:10:39.866Z,23.08
2022-08-17T12:11:56.323Z,23.55
2022-08-17T12:12:42.079Z,23.84
2022-08-17T12:13:44.116Z,23.26
2022-08-17T12:15:08.860Z,22.86
2022-08-17T12:15:48.372Z,22.76
2022-08-17T12:16:49.305Z,23.22
2022-08-17T12:17:51.943Z,22.64
2022-08-17T12:18:53.250Z,22.18
2022-08-17T12:19:55.346Z,22.08
2022-08-17T12:20:57.444Z,22.66
2022-08-17T12:21:59.489Z,22.58
2022-08-17T12:23:01.538Z,22.49
2022-08-17T12:24:03.761Z,22.71
2022-08-17T12:25:05.847Z,23.66
2022-08-17T12:26:07.891Z,23.10
2022-08-17T12:27:09.943Z,23.58
2022-08-17T12:28:12.210Z,25.21
2022-08-17T12:29:18.469Z,23.59
2022-08-17T12:30:15.291Z,23.70
2022-08-17T12:31:17.345Z,24.21
2022-08-17T12:32:19.424Z,24.29
2022-08-17T12:33:25.265Z,24.29
2022-08-17T12:34:22.730Z,24.41
2022-08-17T12:35:24.782Z,24.41
2022-08-17T12:36:26.815Z,24.89
2022-08-17T12:37:28.949Z,24.90
2022-08-17T12:38:33.290Z,25.30
2022-08-17T12:39:33.999Z,25.20
2022-08-17T12:40:34.007Z,24.90
2022-08-17T12:41:36.206Z,24.12
2022-08-17T12:42:38.400Z,24.10
2022-08-17T12:43:40.438Z,23.81
2022-08-17T12:44:50.039Z,23.80
2022-08-17T12:45:44.683Z,24.17
2022-08-17T12:46:45.750Z,23.21
2022-08-17T12:47:47.795Z,23.41
2022-08-17T12:48:59.036Z,23.93
2022-08-17T12:49:51.301Z,23.98
2022-08-17T12:50:53.345Z,25.20
2022-08-17T12:51:55.385Z,25.88
2022-08-17T12:53:01.793Z,26.51
2022-08-17T12:53:58.625Z,27.72
2022-08-17T12:55:00.809Z,27.81
2022-08-17T12:56:02.872Z,27.29
2022-08-17T12:57:04.905Z,26.38
2022-08-17T12:58:09.929Z,26.27
2022-08-17T12:59:09.200Z,26.30
2022-08-17T13:00:10.177Z,26.61
2022-08-17T13:01:11.326Z,27.00
2022-08-17T13:02:13.447Z,26.92
2022-08-17T13:03:15.570Z,29.84
2022-08-17T13:04:17.775Z,28.11
2022-08-17T13:05:19.818Z,27.92
2022-08-17T13:06:21.885Z,28.32
2022-08-17T13:07:23.953Z,28.07
2022-08-17T13:08:26.001Z,28.66
2022-08-17T13:09:36.082Z,30.04
2022-08-17T13:10:32.810Z,29.76
2022-08-17T13:11:29.463Z,30.21
2022-08-17T13:12:30.603Z,30.99
2022-08-17T13:13:32.767Z,30.50
2022-08-17T13:14:34.814Z,30.50
2022-08-17T13:15:36.897Z,30.60
2022-08-17T13:16:39.080Z,30.60
2022-08-17T13:17:41.172Z,30.60
2022-08-17T13:18:43.237Z,30.60
2022-08-17T13:19:45.476Z,30.60
2022-08-17T13:20:47.551Z,30.60
2022-08-17T13:21:49.618Z,30.60
2022-08-17T13:22:51.691Z,30.70
2022-08-17T13:23:53.999Z,31.29
2022-08-17T13:24:54.878Z,32.06
2022-08-17T13:25:56.945Z,30.99
2022-08-17T13:26:59.024Z,30.99
2022-08-17T13:28:01.091Z,30.89
2022-08-17T13:29:03.208Z,32.64
2022-08-17T13:30:05.330Z,30.53
2022-08-17T13:31:07.382Z,30.84
2022-08-17T13:32:12.888Z,30.95
2022-08-17T13:33:11.292Z,31.25
2022-08-17T13:34:12.496Z,31.44
2022-08-17T13:35:28.377Z,31.15
2022-08-17T13:36:19.403Z,31.15
2022-08-17T13:37:16.999Z,31.25
2022-08-17T13:38:17.284Z,31.05
2022-08-17T13:39:19.386Z,31.13
2022-08-17T13:40:21.480Z,31.23
2022-08-17T13:41:23.665Z,31.32
2022-08-17T13:42:24.755Z,31.03
2022-08-17T13:43:26.846Z,31.32
2022-08-17T13:44:28.944Z,31.13
2022-08-17T13:45:36.636Z,31.13
2022-08-17T13:46:33.366Z,31.13
2022-08-17T13:47:34.276Z,30.84
2022-08-17T13:48:36.368Z,30.84
2022-08-17T13:49:48.317Z,30.64
2022-08-17T13:50:40.607Z,31.34
2022-08-17T13:51:41.648Z,31.64
2022-08-17T13:52:44.572Z,31.05
2022-08-17T13:53:45.416Z,31.25
2022-08-17T13:54:47.606Z,31.64
2022-08-17T13:55:49.738Z,31.54
2022-08-17T13:56:51.812Z,31.25
2022-08-17T13:58:03.639Z,31.15
2022-08-17T13:58:56.082Z,31.25
2022-08-17T13:59:56.984Z,31.05
2022-08-17T14:00:59.079Z,31.25
2022-08-17T14:02:01.295Z,31.55
2022-08-17T14:03:02.221Z,31.65
2022-08-17T14:04:04.310Z,32.14
2022-08-17T14:05:06.836Z,31.83
2022-08-17T14:06:07.772Z,32.51
2022-08-17T14:07:09.840Z,32.04
2022-08-17T14:08:11.915Z,31.75
2022-08-17T14:09:14.062Z,31.84
2022-08-17T14:10:16.179Z,31.86
2022-08-17T14:11:18.233Z,32.84
2022-08-17T14:12:20.368Z,31.86
2022-08-17T14:13:21.313Z,32.06
2022-08-17T14:14:23.466Z,32.15
2022-08-17T14:15:53.908Z,32.74
2022-08-17T14:16:27.761Z,31.96
2022-08-17T14:17:28.682Z,32.06
2022-08-17T14:18:50.566Z,33.03
2022-08-17T14:19:31.934Z,32.06
2022-08-17T14:20:34.045Z,32.35
2022-08-17T14:21:36.122Z,31.67
2022-08-17T14:22:38.227Z,31.37
2022-08-17T14:23:40.303Z,32.35
2022-08-17T14:24:44.897Z,31.96
2022-08-17T14:25:43.710Z,32.15
2022-08-17T14:26:45.778Z,32.35
2022-08-17T14:27:52.648Z,32.35
2022-08-17T14:28:56.701Z,32.55
2022-08-17T14:29:51.369Z,32.15
2022-08-17T14:30:52.243Z,32.35
2022-08-17T14:31:54.828Z,32.45
2022-08-17T14:32:55.896Z,32.45
2022-08-17T14:33:58.002Z,32.55
2022-08-17T14:35:00.155Z,32.45
2022-08-17T14:36:02.197Z,32.94
2022-08-17T14:37:04.298Z,32.64
2022-08-17T14:38:06.394Z,32.64
2022-08-17T14:39:08.555Z,32.45
2022-08-17T14:40:10.923Z,32.35
2022-08-17T14:41:11.918Z,32.35
2022-08-17T14:42:14.044Z,32.25
2022-08-17T14:43:16.115Z,32.15
2022-08-17T14:44:18.179Z,32.07
2022-08-17T14:45:32.186Z,32.85
2022-08-17T14:46:22.813Z,32.07
2022-08-17T14:47:23.744Z,32.38
2022-08-17T14:48:26.074Z,32.26
2022-08-17T14:49:28.115Z,32.17
2022-08-17T14:50:30.193Z,32.17
2022-08-17T14:51:31.581Z,32.28
2022-08-17T14:52:33.629Z,32.17
2022-08-17T14:53:35.711Z,32.26
2022-08-17T14:54:41.256Z,32.26
2022-08-17T14:55:41.226Z,32.07
2022-08-17T14:56:42.126Z,32.07
2022-08-17T14:57:43.849Z,32.28
2022-08-17T14:58:45.917Z,32.87
2022-08-17T14:59:47.997Z,32.58
2022-08-17T15:00:49.337Z,32.67
2022-08-17T15:01:51.550Z,32.77
2022-08-17T15:02:52.493Z,31.99
2022-08-17T15:03:54.582Z,31.99
2022-08-17T15:04:56.661Z,32.48
2022-08-17T15:05:58.800Z,32.28
2022-08-17T15:07:00.888Z,32.48
2022-08-17T15:08:02.973Z,32.09
2022-08-17T15:09:05.078Z,32.48
2022-08-17T15:10:07.143Z,32.28
2022-08-17T15:11:14.269Z,32.18
2022-08-17T15:12:10.540Z,32.58
2022-08-17T15:13:12.620Z,32.77
2022-08-17T15:14:14.709Z,32.48
2022-08-17T15:15:16.785Z,32.87
2022-08-17T15:16:18.871Z,32.77
2022-08-17T15:17:20.947Z,31.89
2022-08-17T15:18:23.020Z,32.00
2022-08-17T15:19:25.086Z,33.08
2022-08-17T15:20:27.154Z,32.89
2022-08-17T15:21:29.230Z,32.49
2022-08-17T15:22:31.347Z,32.79
2022-08-17T15:23:32.430Z,33.38
2022-08-17T15:24:33.446Z,33.38
2022-08-17T15:25:35.507Z,32.89
2022-08-17T15:26:37.584Z,33.28
2022-08-17T15:27:39.734Z,33.08
2022-08-17T15:28:41.768Z,33.28
2022-08-17T15:29:43.899Z,33.38
2022-08-17T15:30:46.010Z,33.86
2022-08-17T15:31:48.189Z,34.86
2022-08-17T15:32:54.100Z,32.98
2022-08-17T15:33:52.435Z,33.28
2022-08-17T15:34:54.506Z,32.89
2022-08-17T15:35:56.693Z,32.69
2022-08-17T15:36:58.827Z,32.89
2022-08-17T15:38:08.000Z,32.29
2022-08-17T15:39:03.253Z,32.00
2022-08-17T15:40:04.211Z,34.35
2022-08-17T15:41:06.385Z,33.57
2022-08-17T15:42:08.462Z,32.59
2022-08-17T15:43:10.556Z,32.39
2022-08-17T15:44:11.651Z,32.12
2022-08-17T15:45:13.731Z,32.02
2022-08-17T15:46:15.816Z,32.02
2022-08-17T15:47:17.888Z,32.70
2022-08-17T15:48:19.959Z,32.98
2022-08-17T15:49:22.061Z,32.79
2022-08-17T15:50:24.096Z,34.64
2022-08-17T15:51:26.176Z,33.38
2022-08-17T15:52:28.264Z,34.74
2022-08-17T15:53:30.341Z,33.09
2022-08-17T15:54:34.722Z,33.29
2022-08-17T15:55:34.640Z,33.19
2022-08-17T15:56:36.730Z,33.19
2022-08-17T15:57:38.829Z,33.69
2022-08-17T15:58:40.911Z,33.49
2022-08-17T15:59:42.987Z,32.80
2022-08-17T16:00:53.324Z,33.98
2022-08-17T16:03:13.445Z,34.47
2022-08-17T16:03:46.006Z,33.70
2022-08-17T16:04:04.680Z,32.92
2022-08-17T16:04:51.772Z,32.33
2022-08-17T16:05:52.745Z,32.53
2022-08-17T16:06:54.872Z,33.09
2022-08-17T16:07:56.956Z,37.13
2022-08-17T16:08:59.004Z,32.72
2022-08-17T16:10:01.088Z,34.10
2022-08-17T16:11:03.217Z,33.52
2022-08-17T16:12:05.356Z,33.62
2022-08-17T16:13:17.532Z,33.42
2022-08-17T16:14:08.685Z,34.01
2022-08-17T16:15:09.802Z,33.03
2022-08-17T16:16:11.884Z,33.13
2022-08-17T16:17:40.261Z,33.72
2022-08-17T16:18:15.271Z,33.33
2022-08-17T16:19:17.330Z,33.23
2022-08-17T16:20:20.482Z,33.52
2022-08-17T16:21:20.781Z,34.40
2022-08-17T16:22:22.865Z,34.21
2022-08-17T16:23:24.965Z,34.70
2022-08-17T16:24:27.047Z,34.40
2022-08-17T16:25:40.290Z,34.60
2022-08-17T16:26:31.307Z,34.50
2022-08-17T16:27:32.218Z,34.60
2022-08-17T16:28:36.332Z,34.70
2022-08-17T16:29:36.292Z,34.99
2022-08-17T16:30:38.374Z,33.91
2022-08-17T16:31:40.450Z,34.70
2022-08-17T16:32:41.558Z,33.81
2022-08-17T16:33:42.649Z,34.01
2022-08-17T16:34:46.209Z,34.80
2022-08-17T16:35:47.126Z,33.72
2022-08-17T16:36:55.615Z,33.33
2022-08-17T16:37:51.484Z,33.81
2022-08-17T16:38:52.459Z,33.23
2022-08-17T16:39:54.653Z,34.60
2022-08-17T16:40:55.593Z,34.99
2022-08-17T16:41:57.695Z,34.01
2022-08-17T16:42:59.789Z,33.62
2022-08-17T16:44:01.865Z,34.97
2022-08-17T16:45:03.954Z,33.89
2022-08-17T16:46:06.055Z,34.88
2022-08-17T16:47:08.213Z,33.99
2022-08-17T16:48:09.118Z,34.97
2022-08-17T16:49:13.514Z,34.49
2022-08-17T16:50:13.453Z,34.58
2022-08-17T16:51:14.370Z,34.39
2022-08-17T16:52:16.441Z,33.21
2022-08-17T16:53:18.642Z,35.68
2022-08-17T16:54:19.532Z,35.87
2022-08-17T16:55:21.602Z,34.70
2022-08-17T16:56:23.638Z,35.87
2022-08-17T16:57:25.232Z,36.37
2022-08-17T16:58:27.300Z,34.80
2022-08-17T16:59:38.767Z,35.97
2022-08-17T17:00:31.682Z,35.58
2022-08-17T17:01:32.622Z,36.07
2022-08-17T17:02:34.719Z,37.64
2022-08-17T17:03:36.769Z,36.66
2022-08-17T17:04:38.921Z,36.18
2022-08-17T17:05:41.153Z,36.48
2022-08-17T17:06:42.058Z,35.40
2022-08-17T17:07:44.265Z,35.40
2022-08-17T17:08:45.224Z,37.07
2022-08-17T17:09:47.315Z,37.36
2022-08-17T17:10:48.446Z,35.89
2022-08-17T17:11:50.530Z,36.48
2022-08-17T17:13:02.570Z,36.50
2022-08-17T17:13:54.868Z,36.60
2022-08-17T17:14:56.036Z,35.71
2022-08-17T17:15:56.901Z,35.02
2022-08-17T17:16:58.972Z,35.62
2022-08-17T17:18:01.802Z,35.32
2022-08-17T17:19:02.316Z,35.93
2022-08-17T17:20:04.387Z,36.02
2022-08-17T17:21:06.655Z,35.93
2022-08-17T17:22:08.699Z,35.93
2022-08-17T17:23:11.301Z,35.54
2022-08-17T17:24:12.396Z,36.02
2022-08-17T17:25:14.531Z,35.54
2022-08-17T17:26:16.640Z,35.83
2022-08-17T17:27:17.766Z,36.71
2022-08-17T17:28:19.843Z,37.01
2022-08-17T17:29:21.486Z,36.22
2022-08-17T17:30:23.562Z,36.51
2022-08-17T17:31:25.684Z,36.71
2022-08-17T17:32:26.855Z,36.91
2022-08-17T17:33:28.425Z,37.30
2022-08-17T17:34:30.278Z,38.30
2022-08-17T17:35:31.505Z,39.09
2022-08-17T17:36:32.657Z,36.63
2022-08-17T17:37:34.857Z,36.43
2022-08-17T17:38:35.858Z,36.14
2022-08-17T17:39:37.991Z,36.24
2022-08-17T17:40:45.306Z,36.14
2022-08-17T17:41:40.379Z,35.55
2022-08-17T17:42:41.509Z,36.63
2022-08-17T17:43:43.572Z,37.03
2022-08-17T17:44:45.669Z,36.63
2022-08-17T17:45:46.632Z,37.22
2022-08-17T17:46:48.737Z,36.93
2022-08-17T17:47:50.717Z,36.83
2022-08-17T17:48:51.768Z,36.63
2022-08-17T17:49:53.838Z,36.93
2022-08-17T17:50:56.115Z,36.83
2022-08-17T17:52:11.004Z,36.16
2022-08-17T17:52:59.215Z,36.06
2022-08-17T17:53:59.212Z,36.35
2022-08-17T17:55:01.316Z,36.16
2022-08-17T17:56:03.382Z,37.34
2022-08-17T17:57:05.460Z,37.75
2022-08-17T17:58:07.502Z,38.93
2022-08-17T17:59:12.665Z,38.63
2022-08-17T18:00:11.608Z,40.20
2022-08-17T18:02:15.477Z,39.32
2022-08-17T18:03:17.612Z,39.81
2022-08-17T18:04:20.708Z,40.01
2022-08-17T18:05:20.758Z,40.22
2022-08-17T18:06:22.799Z,40.42
2022-08-17T18:07:24.264Z,40.91
2022-08-17T18:08:32.095Z,41.33
2022-08-17T18:09:28.703Z,41.62
2022-08-17T18:10:30.471Z,41.72
2022-08-17T18:11:33.055Z,41.43
2022-08-17T18:12:31.556Z,42.51
2022-08-17T18:13:33.716Z,42.43
2022-08-17T18:14:35.781Z,43.12
2022-08-17T18:15:37.913Z,42.63
2022-08-17T18:16:40.040Z,42.73
2022-08-17T18:17:42.128Z,42.85
2022-08-17T18:18:44.197Z,42.95
2022-08-17T18:19:46.283Z,42.95
2022-08-17T18:20:54.069Z,42.95
2022-08-17T18:21:50.797Z,43.24
2022-08-17T18:22:51.736Z,43.24
2022-08-17T18:23:53.885Z,43.64
2022-08-17T18:24:56.243Z,43.54
2022-08-17T18:25:57.187Z,44.34
2022-08-17T18:26:59.272Z,43.85
2022-08-17T18:28:01.467Z,44.84
2022-08-17T18:29:03.591Z,44.17
2022-08-17T18:30:09.152Z,44.47
2022-08-17T18:31:06.856Z,44.47
2022-08-17T18:32:08.944Z,44.68
2022-08-17T18:33:10.986Z,44.59
2022-08-17T18:34:29.366Z,45.08
